Old Town, Florida
Current Conditions -  °F | °C
As of 7:53 PM on Monday 24 Nov 2014 (Local Time) from KGNV Reporting Station
Clear Clear  
Wind Chill: 74°   Ceiling: Unl
Heat Index: 74°   Visibility: 10mi
Dew Point: 71°   Wind: 5mph
Humidity: 91%   Direction: 170°S
Pressure: 29.97"   Gusts: NA
Location:  29.6°N, 82.98°W
Report Text: KGNV 250053Z 17004KT 10SM CLR 23/22 A2997 RMK AO2 SLP145 T02330217
Loading
Personal Weather Stations






























Interactive Weather Map New forecast layout! Learn more

10-Day Weather Forecast

Advertisements
Track Severe Weather on mobile